Time;durP1;ratioP1;P1;durP2;ratioP2;P2;SDS_P1;SDS_P2;PMS_P1;PMS_P2;Temp;Humidity;BMP_temperature;BMP_pressure;BME280_temperature;BME280_humidity;BME280_pressure;Samples;Min_cycle;Max_cycle;Signal;HPM_P1;HPM_P2
2024/03/08 00:00:14;;;;;;;50.72;24.25;;;;;;;6.64;96.20;100635.47;5049555;28;20048;-57
2024/03/08 00:02:45;;;;;;;59.85;23.90;;;;;;;6.61;96.55;100634.16;5044904;28;20049;-57
2024/03/08 00:05:14;;;;;;;47.88;20.35;;;;;;;6.59;96.47;100633.66;5041608;28;20388;-61
2024/03/08 00:07:43;;;;;;;45.50;22.60;;;;;;;6.57;96.60;100630.41;5049289;28;20049;-56
2024/03/08 00:10:13;;;;;;;52.63;22.25;;;;;;;6.58;96.59;100636.72;5050255;28;20132;-56
2024/03/08 00:12:44;;;;;;;48.95;22.75;;;;;;;6.57;96.59;100635.91;5038358;28;20750;-58
2024/03/08 00:15:14;;;;;;;47.47;23.02;;;;;;;6.57;96.62;100630.41;5049223;28;20525;-57
2024/03/08 00:17:44;;;;;;;55.10;23.55;;;;;;;6.57;96.50;100627.66;5031104;28;20049;-57
2024/03/08 00:20:13;;;;;;;48.75;23.15;;;;;;;6.57;96.58;100630.41;5037642;28;20076;-58
2024/03/08 00:22:41;;;;;;;43.75;20.88;;;;;;;6.58;96.49;100632.03;5031654;28;20053;-57
2024/03/08 00:25:09;;;;;;;41.00;21.02;;;;;;;6.59;96.62;100627.34;5028859;28;20045;-58
2024/03/08 00:27:38;;;;;;;43.03;18.92;;;;;;;6.56;96.63;100614.25;5044362;28;20072;-58
2024/03/08 00:30:06;;;;;;;49.42;22.40;;;;;;;6.56;96.50;100615.06;5045547;28;20049;-58
2024/03/08 00:32:34;;;;;;;46.70;21.10;;;;;;;6.55;96.77;100607.13;5048851;28;20041;-58
2024/03/08 00:35:02;;;;;;;45.70;20.00;;;;;;;6.54;96.37;100609.03;5048056;28;20056;-57
2024/03/08 00:37:32;;;;;;;42.80;20.02;;;;;;;6.55;96.58;100605.19;5045452;28;20052;-58
2024/03/08 00:39:59;;;;;;;44.35;20.50;;;;;;;6.53;96.49;100604.69;5046348;28;20506;-60
2024/03/08 00:42:27;;;;;;;43.17;22.00;;;;;;;6.52;96.33;100603.06;5049413;28;20055;-58
2024/03/08 00:44:54;;;;;;;39.13;15.73;;;;;;;6.53;96.28;100601.94;5048806;28;20056;-57
2024/03/08 00:47:21;;;;;;;41.75;20.48;;;;;;;6.53;96.30;100593.69;5049159;28;20661;-55
2024/03/08 00:49:49;;;;;;;35.83;18.60;;;;;;;6.53;96.39;100596.44;5046082;28;20052;-61
2024/03/08 00:52:17;;;;;;;36.40;21.27;;;;;;;6.53;96.30;100599.19;5047359;28;20613;-58
2024/03/08 00:54:44;;;;;;;39.90;18.10;;;;;;;6.53;96.35;100590.13;5014332;28;20041;-59
2024/03/08 00:57:12;;;;;;;43.95;19.20;;;;;;;6.53;96.13;100596.44;5040922;28;20094;-58
2024/03/08 00:59:39;;;;;;;35.10;19.40;;;;;;;6.52;96.03;100586.56;5043388;28;20045;-58
2024/03/08 01:02:08;;;;;;;43.90;21.77;;;;;;;6.51;96.08;100587.69;5039133;28;20042;-61
2024/03/08 01:04:36;;;;;;;43.25;20.50;;;;;;;6.53;96.03;100588.19;5039895;28;20052;-58
2024/03/08 01:07:03;;;;;;;39.55;19.80;;;;;;;6.51;95.96;100571.19;5038776;28;20045;-58
2024/03/08 01:09:31;;;;;;;41.28;20.33;;;;;;;6.52;96.07;100572.81;5047798;28;20045;-57
2024/03/08 01:11:59;;;;;;;48.10;18.83;;;;;;;6.52;95.90;100577.50;5048481;28;20053;-58
2024/03/08 01:14:28;;;;;;;45.67;20.45;;;;;;;6.52;95.99;100577.50;5047910;28;20045;-57
2024/03/08 01:16:56;;;;;;;45.97;21.08;;;;;;;6.51;95.92;100576.69;5047905;28;21017;-56
2024/03/08 01:19:23;;;;;;;44.78;19.73;;;;;;;6.48;96.28;100571.84;5042760;28;20060;-57
2024/03/08 01:21:51;;;;;;;47.80;20.83;;;;;;;6.46;96.31;100568.59;5035001;28;20045;-56
2024/03/08 01:24:19;;;;;;;42.50;19.67;;;;;;;6.44;96.55;100570.88;5045360;28;20056;-52
2024/03/08 01:26:47;;;;;;;29.98;15.52;;;;;;;6.42;96.49;100566.81;5043524;28;20072;-58
2024/03/08 01:29:14;;;;;;;40.15;18.33;;;;;;;6.41;96.54;100568.75;5047458;28;20410;-57
2024/03/08 01:31:42;;;;;;;38.63;19.20;;;;;;;6.41;96.66;100566.00;5047860;28;20406;-57
2024/03/08 01:34:10;;;;;;;44.00;20.00;;;;;;;6.40;96.70;100558.09;5038171;28;20053;-58
2024/03/08 01:36:37;;;;;;;34.38;17.40;;;;;;;6.37;96.44;100558.72;5047209;28;20055;-58
2024/03/08 01:39:07;;;;;;;35.78;17.70;;;;;;;6.35;96.53;100561.81;5043499;28;20411;-58
2024/03/08 01:41:36;;;;;;;41.83;18.90;;;;;;;6.33;96.73;100555.81;5047655;28;20056;-57
2024/03/08 01:44:03;;;;;;;39.65;19.50;;;;;;;6.34;96.45;100559.38;5047603;28;20490;-58
2024/03/08 01:46:31;;;;;;;35.75;18.95;;;;;;;6.34;96.58;100562.13;5048020;28;20041;-59
2024/03/08 01:49:00;;;;;;;49.13;19.02;;;;;;;6.36;96.50;100557.09;5047549;28;20056;-59
2024/03/08 01:51:29;;;;;;;36.63;19.17;;;;;;;6.37;96.39;100554.03;5028824;28;20048;-55
2024/03/08 01:53:59;;;;;;;38.53;18.13;;;;;;;6.39;96.45;100551.78;5046711;28;20140;-59
2024/03/08 01:56:27;;;;;;;36.72;17.95;;;;;;;6.40;96.41;100553.41;5046992;28;20407;-58
2024/03/08 01:58:55;;;;;;;41.45;20.30;;;;;;;6.40;96.41;100547.91;5047914;28;20045;-57
2024/03/08 02:01:22;;;;;;;44.42;19.45;;;;;;;6.39;96.52;100540.78;5045982;28;20061;-50
2024/03/08 02:03:50;;;;;;;42.42;17.83;;;;;;;6.38;96.40;100535.63;5046754;28;20055;-56
2024/03/08 02:06:18;;;;;;;40.75;18.92;;;;;;;6.36;96.55;100540.59;5047166;28;20057;-54
2024/03/08 02:08:46;;;;;;;39.15;18.92;;;;;;;6.34;96.61;100535.44;5045731;28;20044;-60
2024/03/08 02:11:15;;;;;;;40.88;19.00;;;;;;;6.35;96.68;100531.56;5036403;28;20049;-57
2024/03/08 02:13:43;;;;;;;35.40;17.83;;;;;;;6.35;96.63;100530.75;5046077;28;20402;-59
2024/03/08 02:16:10;;;;;;;36.90;17.10;;;;;;;6.33;96.42;100525.56;5046068;28;20052;-58
2024/03/08 02:18:39;;;;;;;41.75;18.85;;;;;;;6.33;96.44;100511.81;5045857;28;20056;-58
2024/03/08 02:21:08;;;;;;;32.63;18.00;;;;;;;6.32;96.49;100517.66;5040390;28;20053;-59
2024/03/08 02:23:37;;;;;;;36.15;17.02;;;;;;;6.32;96.52;100509.41;5044286;28;20048;-59
2024/03/08 02:26:05;;;;;;;40.53;20.60;;;;;;;6.33;96.43;100506.31;5046505;28;20053;-60
2024/03/08 02:28:33;;;;;;;40.13;16.65;;;;;;;6.30;96.47;100504.19;5046585;28;20049;-59
2024/03/08 02:31:02;;;;;;;38.03;18.65;;;;;;;6.27;96.35;100502.13;5037947;28;20049;-58
2024/03/08 02:33:29;;;;;;;34.53;17.55;;;;;;;6.28;96.29;100500.97;5047154;28;20091;-59
2024/03/08 02:35:56;;;;;;;35.80;16.20;;;;;;;6.28;96.07;100495.47;5047727;28;20049;-57
2024/03/08 02:38:24;;;;;;;34.50;16.98;;;;;;;6.28;96.21;100500.97;5046068;28;20041;-56
2024/03/08 02:40:53;;;;;;;32.67;15.65;;;;;;;6.27;96.22;100491.13;5035144;28;21606;-58
2024/03/08 02:43:22;;;;;;;37.53;18.05;;;;;;;6.25;96.30;100485.13;5045105;28;20419;-58
2024/03/08 02:45:52;;;;;;;36.63;17.60;;;;;;;6.27;96.31;100482.88;5047559;28;20521;-58
2024/03/08 02:48:21;;;;;;;36.08;17.70;;;;;;;6.26;96.10;100480.44;5033664;28;20053;-58
2024/03/08 02:50:50;;;;;;;38.10;17.75;;;;;;;6.24;95.95;100472.53;5046337;28;20045;-58
2024/03/08 02:53:18;;;;;;;35.78;15.90;;;;;;;6.24;96.16;100463.47;5045834;28;20406;-58
2024/03/08 02:55:46;;;;;;;35.10;15.15;;;;;;;6.24;96.15;100461.53;5046723;28;20071;-59
2024/03/08 02:58:14;;;;;;;36.92;17.50;;;;;;;6.25;96.02;100457.63;5045973;28;20091;-57
2024/03/08 03:00:44;;;;;;;30.40;16.77;;;;;;;6.26;96.13;100450.19;5116373;23;20961;-50
2024/03/08 03:03:12;;;;;;;32.90;15.77;;;;;;;6.25;96.00;100446.63;5027598;28;20061;-53
2024/03/08 03:05:41;;;;;;;32.10;15.80;;;;;;;6.25;95.91;100438.38;5027213;28;20407;-53
2024/03/08 03:08:15;;;;;;;32.22;16.63;;;;;;;6.24;96.05;100434.03;5027277;28;20057;-50
2024/03/08 03:10:42;;;;;;;33.70;17.42;;;;;;;6.23;96.02;100415.91;5024758;28;20042;-53
2024/03/08 03:13:10;;;;;;;30.75;15.60;;;;;;;6.22;95.81;100419.81;5000171;28;20061;-54
2024/03/08 03:15:37;;;;;;;30.15;15.93;;;;;;;6.22;95.72;100417.06;5027266;28;20049;-52
2024/03/08 03:18:07;;;;;;;33.38;13.95;;;;;;;6.20;95.69;100407.50;5027379;28;20060;-55
2024/03/08 03:20:42;;;;;;;36.92;16.45;;;;;;;6.18;95.87;100407.03;5022108;28;20060;-55
2024/03/08 03:23:13;;;;;;;31.23;13.90;;;;;;;6.17;95.79;100411.72;5009538;28;20420;-55
2024/03/08 03:25:42;;;;;;;28.50;14.75;;;;;;;6.16;95.47;100393.63;5018521;28;20395;-55
2024/03/08 03:28:10;;;;;;;34.03;14.30;;;;;;;6.17;95.75;100388.94;5012784;28;20045;-54
2024/03/08 03:30:39;;;;;;;27.33;14.65;;;;;;;6.16;95.72;100385.38;5019412;28;22346;-55
2024/03/08 03:33:06;;;;;;;33.83;15.65;;;;;;;6.16;95.57;100388.13;5022726;28;20042;-53
2024/03/08 03:35:36;;;;;;;34.33;15.02;;;;;;;6.17;95.30;100386.97;5009797;28;20049;-54
2024/03/08 03:38:08;;;;;;;28.80;13.50;;;;;;;6.15;95.52;100386.50;5017433;28;20073;-55
2024/03/08 03:40:39;;;;;;;31.77;15.48;;;;;;;6.16;95.36;100377.13;5022574;28;20865;-60
2024/03/08 03:43:09;;;;;;;38.53;15.95;;;;;;;6.14;95.29;100384.91;5019033;28;20049;-53
2024/03/08 03:45:39;;;;;;;30.88;12.70;;;;;;;6.15;95.43;100386.50;5030399;28;20407;-52
2024/03/08 03:48:09;;;;;;;28.40;13.35;;;;;;;6.13;95.23;100367.59;5030858;28;20060;-59
2024/03/08 03:50:38;;;;;;;34.78;15.05;;;;;;;6.12;95.38;100368.72;5030561;28;20054;-56
2024/03/08 03:53:08;;;;;;;34.30;14.50;;;;;;;6.13;95.25;100372.28;5029849;28;20076;-52
2024/03/08 03:55:38;;;;;;;;;;;;;;;6.10;95.46;100367.44;5031868;28;20136;-53
2024/03/08 03:58:09;;;;;;;23.88;12.20;;;;;;;6.05;95.26;100368.41;5030622;28;20405;-59
2024/03/08 04:00:38;;;;;;;33.72;14.98;;;;;;;6.05;95.47;100359.34;5030241;28;20053;-52
2024/03/08 04:03:07;;;;;;;34.30;15.45;;;;;;;6.03;95.45;100362.44;5029907;28;20407;-52
2024/03/08 04:05:35;;;;;;;26.83;13.25;;;;;;;6.00;95.24;100357.59;5029914;28;20712;-56
2024/03/08 04:08:02;;;;;;;30.48;15.30;;;;;;;6.00;95.37;100345.78;5030312;28;20376;-53
2024/03/08 04:10:30;;;;;;;30.95;14.27;;;;;;;5.98;95.29;100348.06;5029876;28;20065;-53
2024/03/08 04:13:03;;;;;;;29.38;14.70;;;;;;;5.96;95.60;100344.78;5030568;28;20056;-53
2024/03/08 04:15:31;;;;;;;30.77;14.65;;;;;;;5.95;95.58;100334.97;5029755;28;20053;-56
2024/03/08 04:18:00;;;;;;;31.88;15.00;;;;;;;5.95;95.49;100337.72;5030018;28;20060;-53
2024/03/08 04:20:27;;;;;;;31.45;14.57;;;;;;;5.93;95.50;100337.22;5029985;28;20045;-52
2024/03/08 04:22:55;;;;;;;30.60;15.23;;;;;;;5.93;95.47;100342.72;5029635;28;20061;-51
2024/03/08 04:25:22;;;;;;;34.17;15.52;;;;;;;5.95;95.72;100334.97;5016555;28;20053;-53
2024/03/08 04:27:50;;;;;;;31.60;13.43;;;;;;;5.93;95.39;100337.22;5030192;28;20064;-53
2024/03/08 04:30:17;;;;;;;31.50;13.57;;;;;;;5.92;95.61;100341.09;5028753;28;20409;-57
2024/03/08 04:32:45;;;;;;;26.98;13.95;;;;;;;5.92;95.64;100333.66;5030216;28;20069;-53
2024/03/08 04:35:12;;;;;;;30.02;14.65;;;;;;;5.92;95.72;100332.84;5016051;28;20042;-53
2024/03/08 04:37:40;;;;;;;32.10;13.32;;;;;;;5.92;95.58;100332.84;5028440;28;20419;-59
2024/03/08 04:40:08;;;;;;;31.45;14.43;;;;;;;5.91;95.59;100325.72;5015557;28;20701;-59
2024/03/08 04:42:37;;;;;;;25.13;12.85;;;;;;;5.88;95.67;100323.63;5015958;28;20376;-52
2024/03/08 04:45:07;;;;;;;37.47;14.35;;;;;;;5.85;95.53;100321.56;5029719;28;20065;-53
2024/03/08 04:47:36;;;;;;;27.55;13.18;;;;;;;5.81;95.60;100315.06;5029204;28;20052;-54
2024/03/08 04:50:05;;;;;;;36.92;16.45;;;;;;;5.78;95.79;100318.44;5023089;28;20068;-52
2024/03/08 04:52:32;;;;;;;32.70;13.98;;;;;;;5.78;95.72;100315.69;5019086;28;20393;-53
2024/03/08 04:54:59;;;;;;;27.55;14.25;;;;;;;5.75;95.75;100319.09;5024361;28;20507;-52
2024/03/08 04:57:27;;;;;;;33.28;13.82;;;;;;;5.74;95.69;100303.75;5026826;28;20080;-51
2024/03/08 04:59:55;;;;;;;32.13;13.35;;;;;;;5.74;95.81;100304.56;5024883;28;20045;-53
2024/03/08 05:02:22;;;;;;;27.80;13.35;;;;;;;5.74;95.76;100296.31;5029015;28;20068;-52
2024/03/08 05:04:50;;;;;;;33.22;13.82;;;;;;;5.75;95.73;100306.16;5020627;28;20132;-53
2024/03/08 05:07:19;;;;;;;28.10;15.65;;;;;;;5.76;95.76;100298.75;5025244;28;20057;-51
2024/03/08 05:09:51;;;;;;;32.92;13.57;;;;;;;5.76;96.18;100302.28;5028540;28;20427;-51
2024/03/08 05:12:19;;;;;;;30.53;12.40;;;;;;;5.74;96.10;100298.25;5017396;28;20076;-58
2024/03/08 05:14:49;;;;;;;29.40;13.02;;;;;;;5.74;96.19;100287.28;5019596;28;20060;-57
2024/03/08 05:17:17;;;;;;;32.15;13.55;;;;;;;5.75;96.07;100294.38;5023591;28;20049;-55
2024/03/08 05:19:45;;;;;;;29.25;15.10;;;;;;;5.72;96.19;100290.31;5027330;28;20053;-52
2024/03/08 05:22:12;;;;;;;27.30;15.02;;;;;;;5.71;96.09;100294.22;5010833;28;20057;-50
2024/03/08 05:24:40;;;;;;;33.40;15.55;;;;;;;5.70;96.00;100278.06;5028445;28;20041;-51
2024/03/08 05:27:08;;;;;;;30.42;15.70;;;;;;;5.69;96.10;100281.94;5016130;28;20042;-55
2024/03/08 05:29:35;;;;;;;34.75;14.18;;;;;;;5.68;95.87;100277.56;5025592;28;20406;-50
2024/03/08 05:32:03;;;;;;;30.88;14.05;;;;;;;5.64;96.08;100266.41;5018826;28;20046;-50
2024/03/08 05:34:31;;;;;;;30.52;14.80;;;;;;;5.64;95.94;100271.13;5019434;28;20056;-55
2024/03/08 05:36:58;;;;;;;31.92;13.98;;;;;;;5.64;95.98;100276.63;5015804;28;20064;-56
2024/03/08 05:39:26;;;;;;;31.08;14.50;;;;;;;5.62;96.14;100268.69;5027946;28;20053;-53
2024/03/08 05:41:55;;;;;;;31.52;14.60;;;;;;;5.60;96.19;100264.66;5020785;28;20689;-51
2024/03/08 05:44:23;;;;;;;30.63;15.43;;;;;;;5.56;96.16;100258.22;5014041;28;20046;-57
2024/03/08 05:46:50;;;;;;;28.35;15.00;;;;;;;5.53;96.28;100260.44;5022199;28;20395;-58
2024/03/08 05:49:18;;;;;;;25.63;14.15;;;;;;;5.51;95.96;100251.72;5025205;28;20053;-51
2024/03/08 05:51:47;;;;;;;36.00;17.17;;;;;;;5.47;96.28;100244.47;5019021;28;20069;-53
2024/03/08 05:54:15;;;;;;;40.47;18.05;;;;;;;5.41;96.24;100246.56;5028064;28;20053;-51
2024/03/08 05:56:47;;;;;;;31.15;14.57;;;;;;;5.38;96.18;100249.16;5026683;28;20045;-51
2024/03/08 05:59:15;;;;;;;35.67;15.10;;;;;;;5.34;95.96;100249.00;5024078;28;20049;-56
2024/03/08 06:01:43;;;;;;;30.00;14.98;;;;;;;5.31;96.63;100240.59;5023682;28;20042;-50
2024/03/08 06:04:11;;;;;;;30.95;14.90;;;;;;;5.29;96.52;100232.69;5024689;28;20132;-50
2024/03/08 06:06:39;;;;;;;33.42;16.42;;;;;;;5.26;96.40;100236.09;5025849;28;20049;-53
2024/03/08 06:09:17;;;;;;;32.13;15.88;;;;;;;5.24;96.62;100230.09;5027749;28;20045;-52
2024/03/08 06:11:45;;;;;;;31.65;15.38;;;;;;;5.23;96.77;100233.97;5006928;28;20049;-55
2024/03/08 06:14:12;;;;;;;29.52;14.82;;;;;;;5.23;96.62;100224.94;5026635;28;20049;-50
2024/03/08 06:16:40;;;;;;;31.50;14.85;;;;;;;5.22;96.49;100220.56;5023155;28;20050;-53
2024/03/08 06:19:07;;;;;;;31.45;14.52;;;;;;;5.19;96.90;100233.00;5020732;28;20050;-53
2024/03/08 06:21:36;;;;;;;29.98;14.73;;;;;;;5.18;96.79;100214.94;5026774;28;20055;-51
2024/03/08 06:24:04;;;;;;;38.33;16.55;;;;;;;5.16;96.60;100216.38;5027915;28;20108;-50
2024/03/08 06:26:31;;;;;;;31.90;15.65;;;;;;;5.13;96.77;100217.03;5021292;28;20054;-57
2024/03/08 06:29:01;;;;;;;33.08;15.20;;;;;;;5.12;96.53;100216.22;5019864;28;20050;-51
2024/03/08 06:31:28;;;;;;;32.65;15.50;;;;;;;5.12;96.68;100209.91;5022269;28;20049;-57
2024/03/08 06:33:55;;;;;;;35.33;16.42;;;;;;;5.11;96.76;100203.59;5027254;28;20587;-53
2024/03/08 06:36:24;;;;;;;30.23;14.85;;;;;;;5.11;96.68;100211.06;5025071;28;20125;-53
2024/03/08 06:38:52;;;;;;;34.33;16.25;;;;;;;5.14;96.69;100205.72;5027055;28;20064;-53
2024/03/08 06:41:19;;;;;;;29.83;14.95;;;;;;;5.15;96.90;100207.34;5021476;28;20410;-54
2024/03/08 06:43:48;;;;;;;41.17;17.15;;;;;;;5.18;96.77;100197.66;5022977;28;20794;-57
2024/03/08 06:46:16;;;;;;;38.92;16.75;;;;;;;5.19;96.78;100205.56;5021851;28;20132;-53
2024/03/08 06:48:45;;;;;;;34.67;16.73;;;;;;;5.19;96.86;100200.06;5019902;28;20402;-55
2024/03/08 06:51:15;;;;;;;31.55;15.77;;;;;;;5.19;97.01;100202.81;5023545;28;20132;-55
2024/03/08 06:53:42;;;;;;;35.00;16.70;;;;;;;5.19;96.98;100200.06;5027309;28;20045;-52
2024/03/08 06:56:10;;;;;;;36.08;18.25;;;;;;;5.17;97.28;100196.84;5008963;28;20057;-53
2024/03/08 06:58:37;;;;;;;34.10;18.08;;;;;;;5.17;97.24;100199.59;5013094;28;20132;-52
2024/03/08 07:01:07;;;;;;;44.42;16.38;;;;;;;5.16;97.09;100194.44;5015159;28;20057;-53
2024/03/08 07:03:35;;;;;;;37.53;17.10;;;;;;;5.13;97.10;100197.81;5023627;28;20045;-52
2024/03/08 07:06:04;;;;;;;33.75;15.80;;;;;;;5.11;97.19;100191.84;5027308;28;20056;-55
2024/03/08 07:08:32;;;;;;;38.45;17.33;;;;;;;5.09;97.20;100183.13;5030135;28;20054;-53
2024/03/08 07:11:00;;;;;;;41.20;17.25;;;;;;;5.09;97.12;100178.44;5031573;28;20049;-56
2024/03/08 07:13:28;;;;;;;35.63;17.95;;;;;;;5.05;97.07;100188.47;5024289;28;20851;-58
2024/03/08 07:15:56;;;;;;;36.92;17.85;;;;;;;5.07;97.25;100194.41;5030718;28;20404;-56
2024/03/08 07:18:24;;;;;;;35.55;15.63;;;;;;;5.11;97.47;100191.84;5024346;28;20380;-51
2024/03/08 07:20:51;;;;;;;34.70;17.50;;;;;;;5.13;97.21;100195.06;5029322;28;20053;-53
2024/03/08 07:26:05;;;;;;;35.40;17.52;;;;;;;5.14;97.34;100181.03;5019684;28;20068;-53
2024/03/08 07:28:32;;;;;;;38.63;18.67;;;;;;;5.17;97.34;100179.56;5027282;28;20117;-53
2024/03/08 07:33:39;;;;;;;30.13;16.17;;;;;;;5.21;97.53;100175.06;5013586;28;20049;-52
2024/03/08 07:36:06;;;;;;;37.95;16.48;;;;;;;5.24;97.67;100175.19;5030742;28;20056;-50
2024/03/08 07:38:34;;;;;;;39.13;17.42;;;;;;;5.28;97.54;100173.44;5019198;28;20212;-52
2024/03/08 07:41:02;;;;;;;46.03;19.02;;;;;;;5.37;97.48;100184.41;5029430;28;20049;-52
2024/03/08 07:43:32;;;;;;;37.90;17.45;;;;;;;5.44;97.38;100182.78;5011953;28;20054;-56
2024/03/08 07:46:00;;;;;;;34.33;17.20;;;;;;;5.47;97.34;100184.88;5012000;28;20061;-58
2024/03/08 07:48:27;;;;;;;40.47;19.58;;;;;;;5.50;97.25;100178.75;5030322;28;20109;-57
2024/03/08 07:50:55;;;;;;;40.72;19.45;;;;;;;5.52;97.12;100179.22;5029514;28;20699;-58
2024/03/08 07:53:26;;;;;;;41.80;18.30;;;;;;;5.57;97.31;100182.91;5021138;28;20088;-54
2024/03/08 07:55:54;;;;;;;35.60;18.13;;;;;;;5.64;97.23;100186.00;5018753;28;20050;-52
2024/03/08 07:58:21;;;;;;;44.88;18.70;;;;;;;5.70;97.16;100181.94;5024818;28;20065;-54
2024/03/08 08:00:49;;;;;;;38.05;17.58;;;;;;;5.77;97.20;100176.75;5029845;28;20046;-52
2024/03/08 08:03:20;;;;;;;33.10;17.25;;;;;;;5.82;97.12;100168.34;5030454;28;20103;-59
2024/03/08 08:05:49;;;;;;;37.40;18.60;;;;;;;5.84;97.16;100171.56;5019551;28;20411;-55
2024/03/08 08:08:16;;;;;;;37.55;17.48;;;;;;;5.85;97.11;100174.00;5024468;28;20054;-50
2024/03/08 08:10:43;;;;;;;32.75;17.50;;;;;;;5.90;97.02;100175.78;5026477;28;20049;-54
2024/03/08 08:13:11;;;;;;;41.17;19.00;;;;;;;5.91;97.12;100172.69;5027559;28;20376;-55
2024/03/08 08:15:38;;;;;;;47.35;21.13;;;;;;;5.98;97.10;100172.22;5026829;28;20041;-54
2024/03/08 08:18:06;;;;;;;33.58;16.02;;;;;;;6.04;96.88;100159.88;5022914;28;20393;-57
2024/03/08 08:20:34;;;;;;;37.83;18.08;;;;;;;6.11;97.01;100151.94;5028155;28;20520;-55
2024/03/08 08:23:01;;;;;;;39.65;18.95;;;;;;;6.14;96.93;100159.53;5027567;28;20038;-57
2024/03/08 08:25:29;;;;;;;39.40;21.45;;;;;;;6.12;97.00;100151.59;5029090;28;20526;-56
2024/03/08 08:27:56;;;;;;;36.78;17.05;;;;;;;6.16;96.93;100149.03;5022550;28;20041;-55
2024/03/08 08:30:24;;;;;;;33.67;16.50;;;;;;;6.23;96.85;100148.47;5029281;28;20046;-56
2024/03/08 08:32:51;;;;;;;30.70;14.93;;;;;;;6.26;96.99;100147.81;5026741;28;20041;-56
2024/03/08 08:35:19;;;;;;;32.40;16.08;;;;;;;6.31;97.13;100140.19;5022423;28;20440;-52
2024/03/08 08:37:47;;;;;;;32.67;17.40;;;;;;;6.40;97.02;100143.72;5020193;28;20052;-57
2024/03/08 08:40:14;;;;;;;33.00;17.05;;;;;;;6.48;96.69;100142.88;5028152;28;20047;-57
2024/03/08 08:42:43;;;;;;;39.53;18.10;;;;;;;6.58;96.63;100144.41;5026052;28;20045;-57
2024/03/08 08:45:11;;;;;;;41.13;18.00;;;;;;;6.70;96.95;100139.78;5023185;28;20049;-59
2024/03/08 08:47:46;;;;;;;36.00;18.15;;;;;;;6.79;96.75;100138.94;5024185;28;20055;-56
2024/03/08 08:50:26;;;;;;;38.95;19.02;;;;;;;6.84;96.54;100134.03;5020225;28;20053;-57
2024/03/08 08:52:54;;;;;;;38.47;17.75;;;;;;;6.86;96.34;100125.47;5019831;28;20406;-55
2024/03/08 08:55:25;;;;;;;38.00;18.67;;;;;;;6.85;96.23;100135.66;5021293;28;20041;-56
2024/03/08 08:57:53;;;;;;;34.92;18.20;;;;;;;6.83;96.16;100126.91;5020857;28;20045;-56
2024/03/08 09:00:23;;;;;;;38.83;19.25;;;;;;;6.84;95.97;100127.72;5021038;28;20057;-55
2024/03/08 09:02:51;;;;;;;38.35;18.58;;;;;;;6.85;96.18;100123.84;5000624;28;20053;-55
2024/03/08 09:05:21;;;;;;;36.88;17.60;;;;;;;6.89;96.33;100105.50;5006590;28;20061;-60
2024/03/08 09:07:49;;;;;;;44.88;19.50;;;;;;;6.91;96.08;100111.50;5000522;28;20046;-54
2024/03/08 09:10:18;;;;;;;37.90;19.23;;;;;;;6.91;96.05;100095.00;4984974;28;20069;-58
2024/03/08 09:12:46;;;;;;;39.60;21.17;;;;;;;6.91;96.04;100104.03;5001809;28;20050;-56
2024/03/08 09:15:13;;;;;;;43.83;20.63;;;;;;;6.93;95.98;100098.22;4999237;28;20046;-56
2024/03/08 09:17:41;;;;;;;38.20;19.58;;;;;;;6.95;95.85;100090.41;5003212;28;20045;-53
2024/03/08 09:20:10;;;;;;;39.38;20.17;;;;;;;7.04;95.93;100099.41;5006805;28;20046;-55
2024/03/08 09:22:40;;;;;;;47.15;21.35;;;;;;;7.07;95.49;100094.03;5000383;28;20085;-54
2024/03/08 09:25:09;;;;;;;39.53;19.33;;;;;;;7.03;95.41;100095.03;4997886;28;20057;-53
2024/03/08 09:27:37;;;;;;;46.55;20.95;;;;;;;6.96;95.29;100083.78;5003126;28;20097;-55
2024/03/08 09:30:07;;;;;;;40.17;19.80;;;;;;;6.90;95.19;100101.63;5004393;28;20431;-53
2024/03/08 09:32:36;;;;;;;37.25;18.77;;;;;;;6.88;95.49;100095.66;5006945;28;20042;-50
2024/03/08 09:35:07;;;;;;;43.97;20.17;;;;;;;6.88;95.31;100079.97;5007373;28;20041;-56
2024/03/08 09:37:35;;;;;;;43.50;22.42;;;;;;;6.93;95.44;100081.69;5001207;28;20061;-57
2024/03/08 09:40:09;;;;;;;44.00;20.17;;;;;;;6.96;95.07;100076.34;5007009;28;20056;-58
2024/03/08 09:42:37;;;;;;;32.60;16.63;;;;;;;7.02;94.99;100074.97;5003560;28;20042;-51
2024/03/08 09:45:15;;;;;;;40.00;19.17;;;;;;;7.13;94.76;100064.34;5006917;28;20058;-53
2024/03/08 09:47:44;;;;;;;42.03;21.30;;;;;;;7.19;94.48;100068.50;5005458;28;20058;-54
2024/03/08 09:50:17;;;;;;;37.88;21.25;;;;;;;7.32;94.39;100068.22;5006643;28;20411;-52
2024/03/08 09:52:49;;;;;;;42.28;19.98;;;;;;;7.47;94.26;100057.66;5001607;28;20076;-54
2024/03/08 09:55:22;;;;;;;35.78;19.33;;;;;;;7.53;94.01;100054.38;4995662;28;20542;-58
2024/03/08 10:00:38;;;;;;;38.75;18.80;;;;;;;7.41;93.96;100051.59;5001824;28;20527;-57
2024/03/08 10:03:06;;;;;;;38.05;18.60;;;;;;;7.44;94.22;100055.63;5026498;28;20056;-55
2024/03/08 10:05:33;;;;;;;35.88;18.08;;;;;;;7.43;94.00;100041.03;5026691;28;20053;-52
2024/03/08 10:08:01;;;;;;;35.97;18.98;;;;;;;7.36;93.87;100040.78;5018833;28;20042;-56
2024/03/08 10:10:28;;;;;;;38.75;18.98;;;;;;;7.42;94.05;100044.13;5014788;28;20061;-55
2024/03/08 10:12:56;;;;;;;43.95;19.95;;;;;;;7.48;93.70;100037.25;5025332;28;20046;-54
2024/03/08 10:15:24;;;;;;;45.40;21.52;;;;;;;7.57;93.83;100030.47;5016829;28;20046;-57
2024/03/08 10:17:53;;;;;;;45.65;21.45;;;;;;;7.65;93.35;100034.31;5026507;28;20045;-53
2024/03/08 10:20:20;;;;;;;36.60;19.10;;;;;;;7.69;93.49;100038.78;5019878;28;20060;-55
2024/03/08 10:22:48;;;;;;;37.85;19.67;;;;;;;7.82;93.58;100029.38;5018305;28;20053;-56
2024/03/08 10:25:34;;;;;;;36.95;19.70;;;;;;;7.91;93.28;100024.56;5015010;28;20063;-56
2024/03/08 10:28:04;;;;;;;40.92;19.50;;;;;;;8.05;93.31;100024.19;5022743;28;20045;-56
2024/03/08 10:30:32;;;;;;;38.63;20.20;;;;;;;8.08;93.08;100017.19;5016208;28;20068;-56
2024/03/08 10:32:59;;;;;;;37.22;22.17;;;;;;;8.17;93.17;100023.38;5021008;28;20057;-58
2024/03/08 10:35:27;;;;;;;36.00;18.08;;;;;;;8.29;92.94;100015.09;5014798;28;20060;-58
2024/03/08 10:38:00;;;;;;;29.95;17.15;;;;;;;8.26;92.32;100018.56;5007129;28;20034;-51
2024/03/08 10:40:28;;;;;;;32.25;17.67;;;;;;;8.28;92.47;100008.00;5020827;28;20037;-53
2024/03/08 10:42:58;;;;;;;29.80;17.95;;;;;;;8.29;92.33;100006.84;5024490;28;20052;-57
2024/03/08 10:45:34;;;;;;;37.22;18.27;;;;;;;8.28;92.10;100010.75;5025737;28;20053;-58
2024/03/08 10:48:20;;;;;;;36.90;18.85;;;;;;;8.18;91.90;100003.72;5014751;28;20045;-56
2024/03/08 10:50:50;;;;;;;36.75;20.00;;;;;;;8.11;92.06;100011.78;5015171;28;20053;-56
2024/03/08 10:53:21;;;;;;;30.85;17.40;;;;;;;8.12;92.00;100009.84;5016250;28;20037;-56
2024/03/08 10:55:53;;;;;;;34.85;18.20;;;;;;;8.14;92.23;100015.78;5022241;28;20053;-54
2024/03/08 10:58:23;;;;;;;34.17;19.45;;;;;;;8.12;91.68;100009.84;5024007;28;20057;-54
2024/03/08 11:00:51;;;;;;;41.90;19.60;;;;;;;8.06;91.48;100011.22;5014371;28;20049;-53
2024/03/08 11:03:40;;;;;;;35.90;18.00;;;;;;;7.98;91.44;100005.47;5026038;28;20060;-59
2024/03/08 11:06:09;;;;;;;40.25;20.67;;;;;;;7.89;91.30;100004.78;5018415;28;20059;-55
2024/03/08 11:08:36;;;;;;;35.58;19.38;;;;;;;7.81;91.16;100002.94;5012767;28;20104;-54
2024/03/08 11:11:04;;;;;;;33.95;19.60;;;;;;;7.71;91.32;100003.41;5022171;28;20411;-54
2024/03/08 11:13:44;;;;;;;38.58;19.85;;;;;;;7.64;91.41;99996.88;5021225;28;20049;-58
2024/03/08 11:16:27;;;;;;;35.95;19.65;;;;;;;7.59;91.30;100005.38;5023632;28;20656;-58
2024/03/08 11:19:05;;;;;;;36.30;19.05;;;;;;;7.51;91.20;99996.06;5025091;28;20045;-51
2024/03/08 11:21:33;;;;;;;41.42;21.25;;;;;;;7.46;91.18;99989.97;5021023;28;20052;-54
2024/03/08 11:24:02;;;;;;;45.88;21.27;;;;;;;7.46;91.18;99989.97;5018895;28;20905;-55
2024/03/08 11:26:35;;;;;;;40.95;21.65;;;;;;;7.53;91.06;99990.19;5013745;28;20042;-58
2024/03/08 11:29:27;;;;;;;42.35;19.60;;;;;;;7.59;90.76;99983.31;5021881;28;20049;-56
2024/03/08 11:32:15;;;;;;;36.33;17.85;;;;;;;7.66;90.83;99984.34;5010989;28;20050;-57